createdAt,value
2018-12-30T00:00:11.360Z,9.53
2018-12-30T00:02:42.930Z,9.50
2018-12-30T00:05:12.905Z,9.54
2018-12-30T00:07:42.598Z,9.51
2018-12-30T00:10:12.347Z,9.55
2018-12-30T00:12:42.039Z,9.55
2018-12-30T00:15:11.913Z,9.56
2018-12-30T00:17:41.619Z,9.56
2018-12-30T00:20:11.292Z,9.55
2018-12-30T00:22:40.980Z,9.53
2018-12-30T00:25:10.654Z,9.53
2018-12-30T00:27:40.334Z,9.49
2018-12-30T00:30:10.342Z,9.49
2018-12-30T00:32:40.033Z,9.49
2018-12-30T00:35:09.715Z,9.48
2018-12-30T00:37:39.649Z,9.52
2018-12-30T00:40:09.390Z,9.53
2018-12-30T00:42:39.380Z,9.48
2018-12-30T00:45:09.068Z,9.48
2018-12-30T00:47:38.979Z,9.47
2018-12-30T00:50:08.812Z,9.45
2018-12-30T00:52:38.497Z,9.46
2018-12-30T00:55:08.454Z,9.49
2018-12-30T00:57:38.124Z,9.51
2018-12-30T01:00:09.015Z,9.50
2018-12-30T01:02:38.767Z,9.49
2018-12-30T01:05:08.517Z,9.45
2018-12-30T01:07:38.209Z,9.38
2018-12-30T01:10:09.251Z,9.42
2018-12-30T01:12:39.175Z,9.47
2018-12-30T01:15:09.004Z,9.44
2018-12-30T01:17:38.882Z,9.44
2018-12-30T01:20:08.567Z,9.42
2018-12-30T01:22:38.240Z,9.48
2018-12-30T01:25:08.074Z,9.40
2018-12-30T01:27:37.760Z,9.41
2018-12-30T01:30:07.563Z,9.40
2018-12-30T01:32:37.220Z,9.43
2018-12-30T01:35:07.059Z,9.48
2018-12-30T01:37:36.726Z,9.42
2018-12-30T01:40:06.490Z,9.48
2018-12-30T01:42:36.181Z,9.42
2018-12-30T01:45:06.067Z,9.41
2018-12-30T01:47:35.751Z,9.35
2018-12-30T01:50:05.606Z,9.38
2018-12-30T01:52:35.549Z,9.40
2018-12-30T01:55:05.749Z,9.39
2018-12-30T01:57:35.427Z,9.38
2018-12-30T02:00:06.721Z,9.36
2018-12-30T02:02:36.675Z,9.34
2018-12-30T02:05:06.573Z,9.38
2018-12-30T02:07:36.255Z,9.38
2018-12-30T02:10:06.664Z,9.33
2018-12-30T02:12:36.350Z,9.36
2018-12-30T02:15:06.217Z,9.35
2018-12-30T02:17:35.932Z,9.34
2018-12-30T02:20:06.091Z,9.34
2018-12-30T02:22:36.464Z,9.37
2018-12-30T02:25:06.284Z,9.38
2018-12-30T02:27:36.043Z,9.38
2018-12-30T02:30:07.052Z,9.36
2018-12-30T02:32:36.808Z,9.38
2018-12-30T02:35:06.555Z,9.41
2018-12-30T02:37:36.243Z,9.41
2018-12-30T02:40:05.996Z,9.38
2018-12-30T02:42:37.161Z,9.34
2018-12-30T02:45:07.316Z,9.35
2018-12-30T02:47:37.329Z,9.34
2018-12-30T02:50:07.069Z,9.34
2018-12-30T02:52:36.774Z,9.31
2018-12-30T02:55:06.628Z,9.23
2018-12-30T02:57:36.489Z,9.33
2018-12-30T03:00:07.213Z,9.31
2018-12-30T03:02:36.911Z,9.29
2018-12-30T03:05:06.745Z,9.27
2018-12-30T03:07:37.028Z,9.29
2018-12-30T03:10:06.820Z,9.29
2018-12-30T03:12:36.508Z,9.28
2018-12-30T03:15:07.582Z,9.28
2018-12-30T03:17:37.589Z,9.20
2018-12-30T03:20:08.156Z,9.20
2018-12-30T03:22:37.925Z,9.21
2018-12-30T03:25:07.672Z,9.18
2018-12-30T03:27:37.359Z,9.19
2018-12-30T03:30:07.465Z,9.17
2018-12-30T03:32:37.595Z,9.16
2018-12-30T03:35:26.789Z,9.18
2018-12-30T03:37:56.471Z,9.16
2018-12-30T03:40:26.152Z,9.15
2018-12-30T03:42:55.846Z,9.14
2018-12-30T03:45:25.528Z,9.13
2018-12-30T03:47:55.219Z,9.10
2018-12-30T03:50:24.908Z,9.07
2018-12-30T03:52:54.745Z,9.05
2018-12-30T03:55:24.432Z,9.04
2018-12-30T03:57:54.266Z,9.03
2018-12-30T04:00:23.958Z,9.02
2018-12-30T04:02:54.817Z,8.99
2018-12-30T04:05:24.632Z,9.03
2018-12-30T04:07:54.317Z,9.02
2018-12-30T04:10:24.137Z,8.98
2018-12-30T04:12:54.197Z,8.97
2018-12-30T04:15:24.383Z,8.96
2018-12-30T04:17:54.311Z,8.96
2018-12-30T04:20:23.992Z,8.90
2018-12-30T04:22:53.743Z,8.91
2018-12-30T04:25:23.412Z,8.90
2018-12-30T04:27:53.340Z,8.84
2018-12-30T04:30:23.025Z,8.78
2018-12-30T04:32:52.719Z,8.77
2018-12-30T04:35:22.385Z,8.74
2018-12-30T04:37:52.342Z,8.75
2018-12-30T04:40:22.010Z,8.74
2018-12-30T04:42:51.708Z,8.73
2018-12-30T04:45:21.384Z,8.73
2018-12-30T04:47:51.346Z,8.73
2018-12-30T04:50:21.280Z,8.76
2018-12-30T04:52:50.952Z,8.77
2018-12-30T04:55:20.641Z,8.76
2018-12-30T04:57:50.332Z,8.77
2018-12-30T05:00:20.015Z,8.76
2018-12-30T05:02:49.741Z,8.76
2018-12-30T05:05:19.663Z,8.76
2018-12-30T05:07:49.416Z,8.75
2018-12-30T05:10:19.088Z,8.75
2018-12-30T05:12:48.766Z,8.78
2018-12-30T05:15:18.432Z,8.81
2018-12-30T05:17:48.141Z,8.78
2018-12-30T05:20:17.813Z,8.77
2018-12-30T05:22:47.502Z,8.71
2018-12-30T05:25:17.170Z,8.69
2018-12-30T05:27:46.836Z,8.69
2018-12-30T05:30:16.520Z,8.71
2018-12-30T05:32:46.193Z,8.71
2018-12-30T05:35:15.875Z,8.72
2018-12-30T05:37:45.800Z,8.75
2018-12-30T05:40:15.480Z,8.77
2018-12-30T05:42:45.154Z,8.76
2018-12-30T05:45:14.820Z,8.73
2018-12-30T05:47:44.507Z,8.69
2018-12-30T05:50:14.252Z,8.67
2018-12-30T05:52:43.942Z,8.64
2018-12-30T05:55:13.683Z,8.63
2018-12-30T05:57:43.355Z,8.63
2018-12-30T06:00:13.109Z,8.65
2018-12-30T06:02:42.777Z,8.66
2018-12-30T06:05:12.444Z,8.67
2018-12-30T06:07:42.119Z,8.68
2018-12-30T06:10:11.793Z,8.70
2018-12-30T06:12:41.490Z,8.74
2018-12-30T06:15:11.160Z,8.74
2018-12-30T06:17:40.837Z,8.73
2018-12-30T06:20:10.533Z,8.75
2018-12-30T06:22:40.216Z,8.74
2018-12-30T06:25:09.889Z,8.73
2018-12-30T06:27:39.812Z,8.73
2018-12-30T06:30:09.580Z,8.74
2018-12-30T06:32:39.253Z,8.76
2018-12-30T06:35:09.174Z,8.78
2018-12-30T06:37:39.093Z,8.80
2018-12-30T06:40:11.510Z,8.80
2018-12-30T06:42:40.315Z,8.83
2018-12-30T06:45:09.983Z,8.81
2018-12-30T06:47:39.678Z,8.79
2018-12-30T06:50:09.508Z,8.79
2018-12-30T06:52:39.184Z,8.79
2018-12-30T06:55:08.850Z,8.79
2018-12-30T06:57:38.507Z,8.81
2018-12-30T07:00:08.658Z,8.79
2018-12-30T07:02:38.308Z,8.77
2018-12-30T07:05:08.126Z,8.78
2018-12-30T07:07:37.797Z,8.77
2018-12-30T07:10:07.923Z,8.79
2018-12-30T07:15:26.653Z,8.81
2018-12-30T07:17:56.400Z,8.81
2018-12-30T07:20:26.090Z,8.84
2018-12-30T07:22:55.789Z,8.85
2018-12-30T07:25:25.479Z,8.87
2018-12-30T07:27:55.156Z,8.92
2018-12-30T07:30:24.836Z,8.98
2018-12-30T07:32:54.523Z,8.99
2018-12-30T07:35:24.203Z,9.00
2018-12-30T07:37:53.886Z,9.01
2018-12-30T07:40:23.536Z,9.03
2018-12-30T07:42:53.214Z,9.02
2018-12-30T07:45:22.887Z,9.03
2018-12-30T07:47:52.564Z,9.05
2018-12-30T07:50:22.241Z,9.06
2018-12-30T07:52:52.169Z,9.05
2018-12-30T07:55:21.817Z,9.04
2018-12-30T07:57:51.495Z,9.03
2018-12-30T08:00:21.162Z,9.04
2018-12-30T08:02:51.101Z,9.00
2018-12-30T08:05:20.746Z,8.97
2018-12-30T08:07:50.416Z,8.97
2018-12-30T08:10:20.110Z,8.96
2018-12-30T08:12:49.943Z,8.95
2018-12-30T08:15:20.583Z,8.96
2018-12-30T08:17:50.507Z,8.96
2018-12-30T08:20:20.462Z,8.95
2018-12-30T08:22:50.387Z,8.97
2018-12-30T08:25:20.311Z,9.01
2018-12-30T08:27:50.055Z,9.04
2018-12-30T08:30:19.732Z,9.05
2018-12-30T08:32:49.472Z,9.05
2018-12-30T08:35:19.152Z,9.04
2018-12-30T08:37:48.845Z,9.04
2018-12-30T08:40:18.521Z,9.01
2018-12-30T08:42:48.195Z,8.98
2018-12-30T08:45:17.888Z,8.97
2018-12-30T08:47:47.567Z,8.96
2018-12-30T08:50:18.209Z,8.97
2018-12-30T08:52:47.896Z,8.96
2018-12-30T08:55:17.568Z,8.98
2018-12-30T08:57:47.244Z,9.03
2018-12-30T09:00:16.922Z,9.05
2018-12-30T09:02:46.604Z,9.06
2018-12-30T09:05:16.272Z,9.09
2018-12-30T09:07:45.958Z,9.08
2018-12-30T09:10:15.640Z,9.11
2018-12-30T09:12:45.314Z,9.15
2018-12-30T09:15:14.985Z,9.15
2018-12-30T09:17:44.673Z,9.15
2018-12-30T09:20:14.352Z,9.16
2018-12-30T09:22:44.289Z,9.18
2018-12-30T09:25:13.975Z,9.17
2018-12-30T09:27:43.653Z,9.12
2018-12-30T09:30:13.411Z,9.13
2018-12-30T09:32:43.096Z,9.13
2018-12-30T09:35:12.788Z,9.12
2018-12-30T09:37:42.467Z,9.12
2018-12-30T09:40:12.377Z,9.13
2018-12-30T09:42:42.056Z,9.13
2018-12-30T09:45:11.720Z,9.16
2018-12-30T09:47:41.402Z,9.19
2018-12-30T09:50:11.101Z,9.26
2018-12-30T09:52:40.811Z,9.29
2018-12-30T09:55:10.483Z,9.35
2018-12-30T09:57:40.161Z,9.35
2018-12-30T10:00:10.091Z,9.34
2018-12-30T10:02:39.773Z,9.33
2018-12-30T10:05:09.443Z,9.34
2018-12-30T10:07:39.093Z,9.33
2018-12-30T10:10:08.917Z,9.34
2018-12-30T10:12:38.586Z,9.38
2018-12-30T10:15:10.068Z,9.37
2018-12-30T10:17:40.235Z,9.37
2018-12-30T10:20:10.158Z,9.39
2018-12-30T10:22:39.847Z,9.42
2018-12-30T10:25:09.532Z,9.48
2018-12-30T10:27:39.212Z,9.49
2018-12-30T10:30:09.814Z,9.53
2018-12-30T10:32:39.482Z,9.54
2018-12-30T10:35:09.239Z,9.55
2018-12-30T10:37:39.169Z,9.58
2018-12-30T10:40:08.927Z,9.62
2018-12-30T10:42:38.601Z,9.69
2018-12-30T10:45:08.361Z,9.71
2018-12-30T10:47:38.032Z,9.79
2018-12-30T10:50:07.855Z,9.85
2018-12-30T10:52:37.526Z,9.84
2018-12-30T10:55:07.349Z,9.86
2018-12-30T10:57:37.011Z,9.84
2018-12-30T11:00:07.674Z,9.85
2018-12-30T11:02:37.497Z,9.85
2018-12-30T11:05:07.331Z,9.87
2018-12-30T11:07:36.990Z,9.89
2018-12-30T11:10:06.845Z,9.93
2018-12-30T11:12:36.523Z,9.98
2018-12-30T11:15:06.668Z,10.04
2018-12-30T11:17:36.945Z,10.05
2018-12-30T11:20:07.034Z,10.06
2018-12-30T11:22:36.722Z,10.05
2018-12-30T11:25:07.445Z,10.07
2018-12-30T11:27:37.128Z,10.06
2018-12-30T11:30:08.479Z,10.04
2018-12-30T11:32:38.405Z,10.06
2018-12-30T11:35:27.520Z,10.07
2018-12-30T11:37:57.246Z,10.06
2018-12-30T11:40:27.186Z,10.09
2018-12-30T11:42:56.860Z,10.10
2018-12-30T11:45:26.651Z,10.10
2018-12-30T11:47:56.341Z,10.11
2018-12-30T11:50:26.304Z,10.10
2018-12-30T11:52:56.004Z,10.10
2018-12-30T11:55:25.672Z,10.13
2018-12-30T11:57:55.349Z,10.15
2018-12-30T12:00:25.109Z,10.13
2018-12-30T12:02:54.785Z,10.14
2018-12-30T12:05:24.486Z,10.14
2018-12-30T12:07:54.186Z,10.14
2018-12-30T12:10:23.960Z,10.11
2018-12-30T12:12:53.641Z,10.14
2018-12-30T12:15:23.339Z,10.12
2018-12-30T12:17:53.270Z,10.14
2018-12-30T12:20:22.951Z,10.17
2018-12-30T12:22:52.631Z,10.17
2018-12-30T12:25:38.950Z,10.19
2018-12-30T12:28:08.655Z,10.19
2018-12-30T12:30:38.360Z,10.21
2018-12-30T12:33:08.049Z,10.24
2018-12-30T12:35:37.757Z,10.25
2018-12-30T12:38:07.451Z,10.25
2018-12-30T12:40:37.365Z,10.23
2018-12-30T12:43:07.068Z,10.23
2018-12-30T12:45:36.756Z,10.22
2018-12-30T12:48:06.461Z,10.17
2018-12-30T12:50:36.164Z,10.22
2018-12-30T12:53:05.879Z,10.24
2018-12-30T12:55:35.552Z,10.25
2018-12-30T12:58:05.592Z,10.28
2018-12-30T13:00:35.346Z,10.28
2018-12-30T13:03:05.112Z,10.32
2018-12-30T13:05:34.782Z,10.33
2018-12-30T13:08:04.527Z,10.32
2018-12-30T13:10:34.221Z,10.36
2018-12-30T13:13:04.009Z,10.35
2018-12-30T13:15:33.973Z,10.31
2018-12-30T13:18:03.688Z,10.32
2018-12-30T13:20:33.394Z,10.28
2018-12-30T13:23:03.092Z,10.28
2018-12-30T13:25:32.783Z,10.25
2018-12-30T13:28:02.471Z,10.23
2018-12-30T13:30:32.157Z,10.23
2018-12-30T13:33:02.095Z,10.25
2018-12-30T13:35:31.772Z,10.25
2018-12-30T13:38:01.444Z,10.28
2018-12-30T13:40:31.137Z,10.28
2018-12-30T13:43:00.831Z,10.25
2018-12-30T13:45:32.157Z,10.28
2018-12-30T13:48:01.979Z,10.26
2018-12-30T13:50:31.641Z,10.25
2018-12-30T13:53:01.567Z,10.25
2018-12-30T13:55:31.268Z,10.26
2018-12-30T13:58:01.284Z,10.29
2018-12-30T14:00:30.969Z,10.27
2018-12-30T14:03:00.680Z,10.26
2018-12-30T14:05:30.632Z,10.26
2018-12-30T14:08:00.306Z,10.25
2018-12-30T14:10:30.057Z,10.25
2018-12-30T14:12:59.742Z,10.25
2018-12-30T14:15:29.444Z,10.27
2018-12-30T14:17:59.135Z,10.25
2018-12-30T14:20:28.904Z,10.21
2018-12-30T14:23:06.525Z,10.17
2018-12-30T14:25:36.220Z,10.19
2018-12-30T14:28:05.916Z,10.17
2018-12-30T14:30:35.603Z,10.19
2018-12-30T14:33:05.327Z,10.19
2018-12-30T14:35:35.015Z,10.15
2018-12-30T14:38:05.473Z,10.13
2018-12-30T14:40:35.442Z,10.12
2018-12-30T14:43:05.477Z,10.11
2018-12-30T14:45:35.175Z,10.05
2018-12-30T14:48:05.784Z,10.00
2018-12-30T14:50:35.461Z,9.97
2018-12-30T14:53:05.152Z,9.93
2018-12-30T14:55:34.847Z,9.90
2018-12-30T14:58:05.423Z,9.88
2018-12-30T15:00:35.174Z,9.87
2018-12-30T15:03:05.161Z,9.82
2018-12-30T15:05:34.841Z,9.78
2018-12-30T15:08:05.453Z,9.71
2018-12-30T15:10:35.143Z,9.69
2018-12-30T15:13:05.200Z,9.64
2018-12-30T15:15:34.872Z,9.63
2018-12-30T15:18:04.633Z,9.62
2018-12-30T15:20:34.314Z,9.57
2018-12-30T15:23:04.018Z,9.55
2018-12-30T15:25:51.768Z,9.52
2018-12-30T15:28:21.709Z,9.52
2018-12-30T15:30:51.405Z,9.48
2018-12-30T15:33:21.089Z,9.44
2018-12-30T15:35:50.773Z,9.38
2018-12-30T15:38:20.455Z,9.39
2018-12-30T15:40:50.227Z,9.37
2018-12-30T15:43:19.910Z,9.35
2018-12-30T15:45:49.586Z,9.37
2018-12-30T15:48:19.285Z,9.36
2018-12-30T15:50:48.977Z,9.36
2018-12-30T15:53:36.770Z,9.34
2018-12-30T15:56:06.944Z,9.33
2018-12-30T15:58:36.645Z,9.31
2018-12-30T16:01:06.344Z,9.31
2018-12-30T16:03:36.080Z,9.30
2018-12-30T16:06:05.813Z,9.31
2018-12-30T16:08:35.486Z,9.30
2018-12-30T16:11:06.177Z,9.30
2018-12-30T16:13:36.127Z,9.28
2018-12-30T16:16:05.820Z,9.26
2018-12-30T16:18:35.535Z,9.24
2018-12-30T16:21:05.414Z,9.24
2018-12-30T16:23:35.126Z,9.22
2018-12-30T16:26:04.870Z,9.22
2018-12-30T16:28:34.576Z,9.24
2018-12-30T16:31:05.253Z,9.23
2018-12-30T16:33:35.025Z,9.19
2018-12-30T16:36:05.266Z,9.19
2018-12-30T16:38:34.986Z,9.22
2018-12-30T16:41:05.204Z,9.18
2018-12-30T16:43:34.896Z,9.18
2018-12-30T16:46:05.385Z,9.17
2018-12-30T16:48:35.083Z,9.17
2018-12-30T16:51:05.284Z,9.14
2018-12-30T16:53:34.985Z,9.14
2018-12-30T16:56:05.806Z,9.15
2018-12-30T16:58:35.507Z,9.16
2018-12-30T17:01:05.487Z,9.15
2018-12-30T17:03:35.215Z,9.13
2018-12-30T17:06:05.878Z,9.13
2018-12-30T17:08:36.675Z,9.15
2018-12-30T17:11:06.360Z,9.15
2018-12-30T17:13:36.042Z,9.16
2018-12-30T17:16:05.726Z,9.18
2018-12-30T17:18:35.409Z,9.21
2018-12-30T17:21:05.101Z,9.23
2018-12-30T17:23:34.782Z,9.22
2018-12-30T17:26:04.505Z,9.20
2018-12-30T17:28:34.260Z,9.20
2018-12-30T17:31:04.029Z,9.17
2018-12-30T17:33:33.734Z,9.18
2018-12-30T17:36:03.675Z,9.18
2018-12-30T17:38:33.381Z,9.20
2018-12-30T17:41:03.079Z,9.20
2018-12-30T17:43:32.765Z,9.20
2018-12-30T17:46:02.450Z,9.21
2018-12-30T17:48:32.158Z,9.22
2018-12-30T17:51:01.846Z,9.23
2018-12-30T17:53:31.526Z,9.23
2018-12-30T17:56:01.215Z,9.22
2018-12-30T17:58:30.913Z,9.22
2018-12-30T18:01:00.589Z,9.21
2018-12-30T18:03:30.274Z,9.20
2018-12-30T18:06:00.195Z,9.19
2018-12-30T18:08:29.905Z,9.21
2018-12-30T18:10:59.654Z,9.21
2018-12-30T18:13:29.387Z,9.20
2018-12-30T18:15:59.081Z,9.23
2018-12-30T18:18:28.837Z,9.23
2018-12-30T18:20:58.538Z,9.23
2018-12-30T18:23:28.237Z,9.24
2018-12-30T18:25:58.714Z,9.26
2018-12-30T18:28:28.593Z,9.28
2018-12-30T18:30:58.329Z,9.30
2018-12-30T18:33:27.999Z,9.28
2018-12-30T18:35:57.682Z,9.27
2018-12-30T18:38:27.368Z,9.29
2018-12-30T18:40:57.045Z,9.28
2018-12-30T18:43:26.724Z,9.30
2018-12-30T18:45:56.390Z,9.32
2018-12-30T18:48:26.072Z,9.35
2018-12-30T18:50:55.741Z,9.37
2018-12-30T18:53:25.593Z,9.38
2018-12-30T18:55:55.558Z,9.42
2018-12-30T18:58:25.245Z,9.46
2018-12-30T19:00:54.941Z,9.47
2018-12-30T19:03:24.631Z,9.50
2018-12-30T19:05:54.379Z,9.51
2018-12-30T19:08:24.097Z,9.56
2018-12-30T19:10:53.778Z,9.60
2018-12-30T19:13:23.466Z,9.60
2018-12-30T19:15:53.149Z,9.63
2018-12-30T19:18:22.856Z,9.62
2018-12-30T19:20:52.529Z,9.62
2018-12-30T19:23:22.442Z,9.63
2018-12-30T19:25:52.132Z,9.64
2018-12-30T19:28:21.813Z,9.69
2018-12-30T19:30:51.494Z,9.70
2018-12-30T19:33:21.428Z,9.69
2018-12-30T19:35:51.106Z,9.69
2018-12-30T19:38:20.779Z,9.70
2018-12-30T19:40:50.467Z,9.69
2018-12-30T19:43:20.131Z,9.70
2018-12-30T19:45:49.893Z,9.69
2018-12-30T19:48:19.569Z,9.70
2018-12-30T19:50:51.349Z,9.74
2018-12-30T19:53:21.126Z,9.76
2018-12-30T19:55:50.799Z,9.76
2018-12-30T19:58:20.486Z,9.76
2018-12-30T20:00:50.177Z,9.78
2018-12-30T20:03:19.857Z,9.80
2018-12-30T20:05:49.520Z,9.82
2018-12-30T20:08:19.465Z,9.85
2018-12-30T20:10:49.147Z,9.86
2018-12-30T20:13:19.347Z,9.87
2018-12-30T20:15:49.035Z,9.86
2018-12-30T20:18:18.709Z,9.84
2018-12-30T20:20:48.381Z,9.85
2018-12-30T20:23:18.075Z,9.85
2018-12-30T20:25:48.599Z,9.85
2018-12-30T20:28:18.291Z,9.88
2018-12-30T20:30:47.984Z,9.90
2018-12-30T20:33:17.914Z,9.90
2018-12-30T20:35:47.597Z,9.90
2018-12-30T20:38:19.801Z,9.83
2018-12-30T20:40:49.478Z,9.81
2018-12-30T20:43:19.401Z,9.85
2018-12-30T20:45:49.078Z,9.87
2018-12-30T20:48:18.764Z,9.88
2018-12-30T20:50:48.464Z,9.92
2018-12-30T20:53:18.240Z,9.95
2018-12-30T20:55:47.938Z,9.96
2018-12-30T20:58:17.637Z,9.97
2018-12-30T21:00:47.322Z,9.96
2018-12-30T21:03:17.009Z,9.97
2018-12-30T21:05:46.691Z,9.97
2018-12-30T21:08:16.373Z,9.99
2018-12-30T21:10:46.060Z,10.00
2018-12-30T21:13:15.759Z,10.01
2018-12-30T21:15:45.515Z,10.03
2018-12-30T21:18:15.199Z,10.01
2018-12-30T21:20:46.121Z,9.99
2018-12-30T21:23:15.849Z,9.98
2018-12-30T21:25:45.555Z,9.98
2018-12-30T21:28:15.225Z,9.98
2018-12-30T21:30:45.009Z,9.97
2018-12-30T21:33:14.700Z,9.95
2018-12-30T21:35:44.389Z,9.93
2018-12-30T21:38:14.070Z,9.92
2018-12-30T21:40:43.769Z,9.94
2018-12-30T21:43:13.450Z,9.95
2018-12-30T21:45:43.395Z,9.96
2018-12-30T21:48:13.089Z,9.95
2018-12-30T21:50:42.766Z,9.97
2018-12-30T21:53:13.422Z,9.95
2018-12-30T21:55:43.100Z,9.97
2018-12-30T21:58:12.791Z,9.99
2018-12-30T22:00:42.509Z,9.99
2018-12-30T22:03:12.194Z,9.98
2018-12-30T22:05:41.902Z,9.99
2018-12-30T22:08:11.707Z,10.01
2018-12-30T22:10:41.431Z,10.05
2018-12-30T22:13:11.212Z,10.08
2018-12-30T22:15:40.902Z,10.07
2018-12-30T22:18:10.586Z,10.06
2018-12-30T22:20:40.270Z,10.07
2018-12-30T22:23:10.194Z,10.09
2018-12-30T22:25:39.920Z,10.10
2018-12-30T22:28:09.619Z,10.13
2018-12-30T22:30:39.314Z,10.13
2018-12-30T22:33:09.006Z,10.16
2018-12-30T22:35:38.706Z,10.17
2018-12-30T22:38:16.268Z,10.20
2018-12-30T22:40:45.938Z,10.19
2018-12-30T22:43:15.636Z,10.20
2018-12-30T22:45:45.322Z,10.22
2018-12-30T22:48:15.033Z,10.24
2018-12-30T22:50:45.205Z,10.27
2018-12-30T22:53:14.887Z,10.30
2018-12-30T22:55:44.594Z,10.33
2018-12-30T22:58:14.310Z,10.31
2018-12-30T23:00:59.528Z,10.30
2018-12-30T23:03:29.282Z,10.30
2018-12-30T23:05:58.971Z,10.28
2018-12-30T23:08:28.649Z,10.30
2018-12-30T23:10:58.325Z,10.27
2018-12-30T23:13:28.023Z,10.25
2018-12-30T23:15:57.753Z,10.24
2018-12-30T23:18:27.454Z,10.26
2018-12-30T23:20:57.155Z,10.28
2018-12-30T23:23:26.852Z,10.30
2018-12-30T23:25:57.527Z,10.31
2018-12-30T23:28:27.211Z,10.28
2018-12-30T23:30:56.905Z,10.28
2018-12-30T23:36:20.577Z,10.32
2018-12-30T23:38:50.286Z,10.33
2018-12-30T23:41:19.983Z,10.36
2018-12-30T23:44:09.319Z,10.37
2018-12-30T23:46:39.138Z,10.40
2018-12-30T23:49:08.825Z,10.40
2018-12-30T23:51:38.498Z,10.39
2018-12-30T23:54:08.179Z,10.42
2018-12-30T23:56:37.873Z,10.42
2018-12-30T23:59:07.828Z,10.43
